Terminal Aerodrome Forecast
Issued by NWS

Home | Current Version | Previous Version | Text Only | Print | Product List | Glossary On
Versions: 1 2 3 4 5 6 7 8 9 10 11 12 13 14 15 16
000
FTUS45 KABQ 300500
TAFTCC
TAF
KTCC 300540Z 3006/3106 VRB06KT P6SM SCT050 BKN100
     FM301400 16006KT P6SM VCSH SCT035 BKN060
     FM301900 16006KT 3SM -RASN BR SCT007 BKN015
     FM310100 19006KT 1SM -SN BR SCT002 BKN007=

USA.gov is the U.S. government's official web portal to all federal, state and local government web resources and services.